Data for 11/01/2006

Time Sea-Level Adjusted Pressure Absolute Pressure Temperature Relative Humidity Dew Point   
(mb) (inHg) (mb) (inHg) (C) (F) (%) (C) (F)
00:05 1023 30.21 852 25.16 -11.9 10.5 81 -14.6 5.7
00:10 1023 30.21 852 25.16 -11.6 11.1 80 -14.5 5.9
00:15 1023 30.21 852 25.16 -11.5 11.4 79 -14.4 6.1
00:20 1023 30.21 852 25.16 -11.3 11.6 78 -14.4 6.1
00:25 1023 30.21 852 25.16 -11.4 11.5 80 -14.2 6.4
00:30 1023 30.21 852 25.16 -11.9 10.6 81 -14.5 5.9
00:35 1023 30.21 852 25.16 -12.3 9.8 83 -14.6 5.7
00:40 1023 30.21 852 25.16 -12.3 9.8 83 -14.6 5.7
00:45 1023 30.21 852 25.16 -12.3 9.8 83 -14.6 5.8
00:50 1023 30.21 853 25.19 -12.3 9.9 83 -14.5 5.9
00:55 1023 30.21 853 25.19 -12.1 10.1 83 -14.5 5.9
01:00 1023 30.21 853 25.19 -11.9 10.6 82 -14.4 6.1
01:05 1023 30.21 853 25.19 -11.7 11 81 -14.3 6.3
01:10 1023 30.21 853 25.19 -11.5 11.4 81 -14.2 6.5
01:15 1023 30.21 853 25.19 -11.3 11.6 80 -14.1 6.6
01:20 1024 30.24 853 25.19 -11.2 11.8 80 -14 6.8
01:25 1024 30.24 853 25.19 -11 12.1 79 -14 6.9
01:30 1024 30.24 853 25.19 -11 12.3 79 -14 6.9
01:35 1024 30.24 853 25.19 -10.9 12.5 78 -14 6.9
01:40 1024 30.24 853 25.19 -11.2 11.9 79 -14.1 6.6
01:45 1024 30.24 853 25.19 -11.5 11.3 79 -14.4 6
01:50 1024 30.24 853 25.19 -11.5 11.3 79 -14.4 6.1
01:55 1024 30.24 853 25.19 -11.6 11.2 80 -14.3 6.2
02:00 1024 30.24 853 25.19 -11.4 11.5 80 -14.2 6.4
02:05 1024 30.24 853 25.19 -11.4 11.4 80 -14.3 6.3
02:10 1024 30.24 853 25.19 -11.5 11.3 80 -14.3 6.3
02:15 1024 30.24 853 25.19 -11.4 11.5 80 -14.2 6.4
02:20 1024 30.24 853 25.19 -11.5 11.4 80 -14.3 6.3
02:25 1024 30.24 853 25.19 -11.4 11.5 80 -14.2 6.5
02:30 1024 30.24 853 25.19 -11.3 11.6 80 -14.1 6.6
02:35 1024 30.24 853 25.19 -11.2 11.8 80 -14.1 6.6
02:40 1024 30.24 853 25.19 -11.2 11.9 79 -14.1 6.6
02:45 1024 30.24 853 25.19 -11.3 11.6 79 -14.3 6.3
02:50 1024 30.24 853 25.19 -11.7 11 80 -14.4 6
02:55 1024 30.24 853 25.19 -11.8 10.8 80 -14.5 5.8
03:00 1024 30.24 853 25.19 -11.9 10.6 81 -14.5 5.9
03:05 1024 30.24 853 25.19 -11.9 10.6 81 -14.6 5.8
03:10 1024 30.24 853 25.19 -11.8 10.8 81 -14.4 6
03:15 1024 30.24 853 25.19 -11.7 11 81 -14.3 6.2
03:20 1024 30.24 853 25.19 -11.3 11.7 80 -14.2 6.5
03:25 1024 30.24 853 25.19 -10.9 12.3 78 -14 6.7
03:30 1024 30.24 853 25.19 -10.8 12.7 78 -13.9 6.9
03:35 1024 30.24 853 25.19 -10.8 12.7 77 -14 6.9
03:40 1024 30.24 853 25.19 -10.8 12.5 78 -14 6.8
03:45 1024 30.24 853 25.19 -10.6 12.9 77 -13.9 6.9
03:50 1024 30.24 853 25.19 -10.4 13.2 76 -13.9 7
03:55 1024 30.24 853 25.19 -10.5 13.1 76 -13.9 7
04:00 1024 30.24 853 25.19 -10.7 12.8 76 -14.2 6.5
04:05 1024 30.24 853 25.19 -11.1 12.1 78 -14.2 6.4
04:10 1024 30.24 853 25.19 -11.5 11.4 80 -14.2 6.4
04:15 1024 30.24 853 25.19 -11.4 11.4 79 -14.5 6
04:20 1024 30.24 853 25.19 -11.6 11 80 -14.5 5.9
04:25 1024 30.24 853 25.19 -11.3 11.6 79 -14.3 6.3
04:30 1024 30.24 853 25.19 -11.1 12.1 78 -14.2 6.4
04:35 1024 30.24 853 25.19 -11.3 11.7 78 -14.4 6.2
04:40 1024 30.24 853 25.19 -11.5 11.2 80 -14.4 6.1
04:45 1024 30.24 853 25.19 -11.3 11.6 79 -14.3 6.3
04:50 1024 30.24 853 25.19 -11.1 12 79 -14 6.8
04:55 1024 30.24 853 25.19 -11.1 12 78 -14.2 6.5
05:00 1024 30.24 853 25.19 -11.4 11.4 79 -14.4 6
05:05 1024 30.24 853 25.19 -11.5 11.3 79 -14.5 5.9
05:10 1024 30.24 853 25.19 -11.4 11.6 79 -14.3 6.3
05:15 1024 30.24 853 25.19 -11.1 12 79 -14.1 6.6
05:20 1024 30.24 853 25.19 -10.9 12.4 76 -14.4 6.1
05:25 1024 30.24 853 25.19 -10.9 12.4 74 -14.7 5.6
05:30 1024 30.24 853 25.19 -11.2 11.8 78 -14.4 6.1
05:35 1024 30.24 853 25.19 -11.5 11.3 78 -14.6 5.7
05:40 1024 30.24 853 25.19 -11.6 11.1 79 -14.6 5.7
05:45 1024 30.24 853 25.19 -11.6 11.2 78 -14.6 5.7
05:50 1024 30.24 853 25.19 -11.7 10.9 78 -14.8 5.4
05:55 1024 30.24 853 25.19 -11.6 11.1 76 -15.1 4.8
06:00 1024 30.24 853 25.19 -11.5 11.2 74 -15.3 4.5
06:05 1024 30.24 853 25.19 -11.9 10.5 76 -15.4 4.3
06:10 1024 30.24 853 25.19 -12.6 9.2 78 -15.7 3.8
06:15 1024 30.24 853 25.19 -12.4 9.6 77 -15.6 3.9
06:20 1024 30.24 853 25.19 -12.4 9.7 78 -15.5 4
06:25 1024 30.24 853 25.19 -12.4 9.7 78 -15.6 4
06:30 1024 30.24 853 25.19 -12.5 9.5 78 -15.6 4
06:35 1024 30.24 853 25.19 -12.3 9.8 78 -15.5 4.2
06:40 1024 30.24 853 25.19 -12.3 9.8 77 -15.5 4.1
06:45 1024 30.24 854 25.22 -12.4 9.8 80 -15.2 4.7
06:50 1024 30.24 854 25.22 -12.2 10 80 -15.1 4.9
06:55 1024 30.24 854 25.22 -12.3 9.8 80 -15.1 4.9
07:00 1024 30.24 853 25.19 -12.2 10 81 -14.9 5.1
07:05 1024 30.24 853 25.19 -11.8 10.7 79 -14.8 5.3
07:10 1024 30.24 853 25.19 -11.9 10.5 79 -15 5.1
07:15 1024 30.24 853 25.19 -12.2 10 80 -15 4.9
07:20 1024 30.24 853 25.19 -12.3 9.9 80 -15 4.9
07:25 1024 30.24 853 25.19 -12.4 9.7 81 -15 5
07:30 1024 30.24 853 25.19 -12.2 10 80 -15 5
07:35 1024 30.24 854 25.22 -11.9 10.5 78 -15 5
07:40 1024 30.24 854 25.22 -12.1 10.2 79 -15.1 4.9
07:45 1024 30.24 854 25.22 -11.8 10.7 78 -15 5.1
07:50 1024 30.24 854 25.22 -11.6 11.2 77 -14.9 5.2
07:55 1025 30.27 854 25.22 -10.9 12.4 73 -14.8 5.4
08:00 1025 30.27 854 25.22 -10.5 13 72 -14.6 5.8
08:05 1025 30.27 854 25.22 -10 13.9 71 -14.4 6.1
08:10 1025 30.27 854 25.22 -9.8 14.4 70 -14.3 6.3
08:15 1025 30.27 854 25.22 -9.3 15.3 67 -14.2 6.4
08:20 1025 30.27 854 25.22 -8.7 16.3 65 -14.2 6.4
08:25 1025 30.27 854 25.22 -8.6 16.5 67 -13.7 7.4
08:30 1025 30.27 854 25.22 -8.3 17.1 62 -14.3 6.3
08:35 1025 30.27 854 25.22 -8 17.5 62 -14 6.7
08:40 1025 30.27 854 25.22 -7.7 18.2 63 -13.6 7.5
08:45 1025 30.27 854 25.22 -7.4 18.7 61 -13.6 7.5
08:50 1025 30.27 854 25.22 -7.3 18.9 61 -13.6 7.5
08:55 1025 30.27 854 25.22 -6.9 19.5 60 -13.4 7.9
09:00 1025 30.27 854 25.22 -6.7 19.9 60 -13.3 8
09:05 1025 30.27 854 25.22 -6.5 20.4 58 -13.4 7.9
09:10 1025 30.27 854 25.22 -6.2 20.9 59 -12.9 8.7
09:15 1025 30.27 854 25.22 -6 21.2 58 -13 8.6
09:20 1025 30.27 854 25.22 -5.4 22.3 56 -12.9 8.8
09:25 1025 30.27 854 25.22 -5.9 21.4 57 -13 8.6
09:30 1025 30.27 854 25.22 -5.5 22.1 54 -13.4 7.9
09:35 1025 30.27 854 25.22 -5 23 54 -13 8.6
09:40 1025 30.27 854 25.22 -4.7 23.5 53 -12.9 8.8
09:45 1025 30.27 854 25.22 -4.1 24.6 51 -12.8 9
09:50 1025 30.27 854 25.22 -3.8 25.2 50 -12.8 9
09:55 1025 30.27 854 25.22 -4 24.8 51 -12.6 9.3
10:00 1025 30.27 854 25.22 -4.3 24.2 52 -12.7 9.2
10:05 1025 30.27 854 25.22 -4.6 23.7 53 -12.8 8.9
10:10 1025 30.27 854 25.22 -4.3 24.3 52 -12.9 8.8
10:15 1025 30.27 854 25.22 -4.4 24.1 51 -13 8.6
10:20 1025 30.27 854 25.22 -4.3 24.3 51 -13 8.7
10:25 1025 30.27 854 25.22 -4.3 24.3 51 -13 8.7
10:30 1025 30.27 854 25.22 -4.4 24.1 52 -12.8 8.9
10:35 1025 30.27 854 25.22 -4.1 24.7 50 -13 8.6
10:40 1025 30.27 854 25.22 -3.9 24.9 50 -12.8 8.9
10:45 1025 30.27 854 25.22 -3.6 25.5 51 -12.4 9.6
10:50 1025 30.27 854 25.22 -3.1 26.5 49 -12.3 9.9
10:55 1025 30.27 854 25.22 -2.3 27.8 47 -12.1 10.3
11:00 1025 30.27 854 25.22 -2.5 27.5 48 -12.2 10.1
11:05 1025 30.27 854 25.22 -3 26.6 50 -12.1 10.2
11:10 1025 30.27 854 25.22 -2.8 27 48 -12.3 9.8
11:15 1025 30.27 854 25.22 -2.9 26.8 49 -12.2 10.1
11:20 1025 30.27 854 25.22 -2.5 27.5 46 -12.7 9.2
11:25 1025 30.27 854 25.22 -2.5 27.5 46 -12.7 9.1
11:30 1025 30.27 854 25.22 -2.6 27.3 46 -12.6 9.3
11:35 1025 30.27 854 25.22 -2.5 27.4 45 -13 8.7
11:40 1025 30.27 854 25.22 -1.7 28.9 43 -12.8 9
11:45 1025 30.27 854 25.22 -2.2 28.1 44 -12.8 9
11:50 1025 30.27 854 25.22 -1.7 29 42 -12.8 8.9
11:55 1025 30.27 854 25.22 -1.6 29.1 42 -13 8.5
12:00 1025 30.27 854 25.22 -1.6 29 43 -12.5 9.4
12:05 1024 30.24 854 25.22 -1.4 29.4 43 -12.5 9.5
12:10 1024 30.24 854 25.22 -1.5 29.3 44 -12.2 10
12:15 1024 30.24 854 25.22 -1.6 29.1 44 -12.5 9.5
12:20 1024 30.24 853 25.19 -2.1 28.3 45 -12.4 9.7
12:25 1024 30.24 853 25.19 -1.9 28.6 45 -12.3 9.9
12:30 1024 30.24 853 25.19 -1.3 29.6 43 -12.5 9.5
12:35 1024 30.24 853 25.19 -1.2 29.9 43 -12.2 10
12:40 1024 30.24 853 25.19 -1.2 29.9 44 -12 10.5
12:45 1024 30.24 853 25.19 -0.8 30.5 42 -12.3 9.8
12:50 1024 30.24 853 25.19 -0.7 30.7 41 -12.3 9.8
12:55 1024 30.24 853 25.19 -0.5 31.1 41 -12.2 10.1
13:00 1024 30.24 853 25.19 -0.4 31.4 38 -13 8.6
13:05 1024 30.24 853 25.19 -1.2 29.9 41 -12.8 8.9
13:10 1024 30.24 853 25.19 -0.7 30.8 41 -12.4 9.6
13:15 1024 30.24 853 25.19 -0.8 30.6 41 -12.5 9.5
13:20 1024 30.24 853 25.19 -1.8 28.8 44 -12.6 9.3
13:25 1024 30.24 853 25.19 -1.1 30.1 42 -12.5 9.5
13:30 1023 30.21 853 25.19 -0.1 31.8 40 -12.3 9.9
13:35 1023 30.21 853 25.19 0.1 32.2 39 -12.4 9.7
13:40 1023 30.21 852 25.16 0.2 32.3 38 -12.6 9.3
13:45 1023 30.21 852 25.16 0.7 33.3 36 -12.7 9.1
13:50 1023 30.21 852 25.16 1.2 34.2 36 -12.4 9.6
13:55 1023 30.21 852 25.16 1.3 34.4 36 -12.2 10.1
14:00 1023 30.21 852 25.16 1.2 34.1 39 -11.4 11.5
14:05 1023 30.21 852 25.16 0.9 33.7 39 -11.5 11.3
14:10 1023 30.21 852 25.16 0.6 33.1 40 -11.5 11.2
14:15 1023 30.21 852 25.16 0.4 32.8 39 -11.9 10.6
14:20 1023 30.21 852 25.16 0.6 33.1 41 -11.3 11.7
14:25 1023 30.21 852 25.16 0.8 33.5 39 -11.5 11.3
14:30 1023 30.21 852 25.16 0.5 32.9 40 -11.6 11.1
14:35 1023 30.21 852 25.16 0.6 33.1 38 -12.1 10.3
14:40 1023 30.21 852 25.16 1.2 34.2 36 -12.5 9.6
14:45 1023 30.21 852 25.16 0.9 33.6 37 -12.3 9.9
14:50 1023 30.21 852 25.16 0.6 33.1 40 -11.7 11
14:55 1023 30.21 852 25.16 0.6 33.1 37 -12.5 9.5
15:00 1023 30.21 852 25.16 0 32 42 -11.4 11.5
15:05 1023 30.21 852 25.16 0.2 32.3 39 -12.1 10.1
15:10 1023 30.21 852 25.16 0.1 32.2 39 -12.2 10.1
15:15 1023 30.21 852 25.16 0.5 33 38 -12.4 9.7
15:20 1023 30.21 852 25.16 0.8 33.4 38 -12 10.4
15:25 1023 30.21 852 25.16 0.8 33.4 39 -11.5 11.2
15:30 1023 30.21 852 25.16 0.9 33.7 40 -11.2 11.9
15:35 1023 30.21 852 25.16 1.3 34.3 38 -11.5 11.2
15:40 1023 30.21 852 25.16 1 33.8 38 -11.9 10.6
15:45 1023 30.21 852 25.16 0.9 33.5 36 -12.7 9.2
15:50 1023 30.21 852 25.16 0.9 33.7 35 -13 8.5
15:55 1023 30.21 852 25.16 1.1 34 33 -13.4 7.8
16:00 1023 30.21 852 25.16 1.6 34.8 33 -13.1 8.3
16:05 1023 30.21 852 25.16 1.5 34.6 33 -13.1 8.5
16:10 1023 30.21 852 25.16 1.2 34.1 37 -11.9 10.5
16:15 1023 30.21 852 25.16 0.7 33.3 40 -11.3 11.6
16:20 1023 30.21 852 25.16 0.4 32.7 42 -11.2 11.9
16:25 1023 30.21 852 25.16 -0.1 31.7 44 -11.1 11.9
16:30 1023 30.21 852 25.16 -0.8 30.5 44 -11.7 11
16:35 1022 30.18 852 25.16 -1.3 29.6 46 -11.6 11.1
16:40 1022 30.18 852 25.16 -1.7 29 45 -12 10.4
16:45 1022 30.18 852 25.16 -1.8 28.7 46 -11.9 10.6
16:50 1022 30.18 852 25.16 -2.1 28.3 48 -11.6 11.1
16:55 1022 30.18 852 25.16 -2.2 28 48 -11.7 10.9
17:00 1022 30.18 851 25.13 -2.4 27.8 49 -11.6 11.2
17:05 1022 30.18 851 25.13 -2.6 27.4 51 -11.3 11.6
17:10 1022 30.18 851 25.13 -2.7 27.2 54 -10.8 12.5
17:15 1022 30.18 851 25.13 -2.6 27.3 55 -10.4 13.3
17:20 1022 30.18 851 25.13 -2.7 27.1 55 -10.7 12.8
17:25 1022 30.18 851 25.13 -2.9 26.8 54 -10.9 12.4
17:30 1022 30.18 851 25.13 -2.7 27.2 51 -11.5 11.3
17:35 1022 30.18 851 25.13 -2.3 27.8 50 -11.5 11.3
17:40 1022 30.18 851 25.13 -2.2 28.1 48 -11.7 10.9
17:45 1022 30.18 851 25.13 -2.1 28.2 51 -11.1 12.1
17:50 1022 30.18 851 25.13 -2.5 27.6 50 -11.5 11.2
17:55 1022 30.18 851 25.13 -2.9 26.8 52 -11.3 11.7
18:00 1022 30.18 851 25.13 -3 26.7 55 -10.7 12.7
18:05 1022 30.18 851 25.13 -3.3 26.1 57 -10.6 12.8
18:10 1022 30.18 851 25.13 -3.4 25.9 58 -10.5 13
18:15 1022 30.18 851 25.13 -3.4 25.8 57 -10.8 12.5
18:20 1022 30.18 851 25.13 -3.6 25.4 59 -10.4 13.2
18:25 1022 30.18 851 25.13 -3.7 25.4 54 -11.6 11.1
18:30 1022 30.18 851 25.13 -3.8 25.2 58 -10.9 12.3
18:35 1022 30.18 851 25.13 -4.3 24.3 66 -9.7 14.6
18:40 1022 30.18 851 25.13 -4.7 23.5 64 -10.5 13
18:45 1022 30.18 851 25.13 -4.5 23.9 64 -10.3 13.5
18:50 1022 30.18 851 25.13 -4.5 24 65 -10 13.9
18:55 1022 30.18 851 25.13 -5 23 69 -9.9 14.2
19:00 1022 30.18 851 25.13 -5.6 21.9 72 -9.9 14.2
19:05 1022 30.18 851 25.13 -5.8 21.6 71 -10.2 13.6
19:10 1022 30.18 851 25.13 -5.9 21.3 72 -10.3 13.5
19:15 1022 30.18 851 25.13 -5.5 22.2 69 -10.2 13.6
19:20 1022 30.18 851 25.13 -5.2 22.6 68 -10.2 13.6
19:25 1022 30.18 851 25.13 -5.5 22.2 67 -10.7 12.7
19:30 1022 30.18 851 25.13 -5.2 22.6 62 -11.4 11.5
19:35 1022 30.18 851 25.13 -5.3 22.5 62 -11.5 11.3
19:40 1022 30.18 851 25.13 -5.4 22.3 61 -11.8 10.7
19:45 1022 30.18 851 25.13 -5.5 22.1 61 -11.8 10.8
19:50 1022 30.18 851 25.13 -5.4 22.2 61 -11.9 10.6
19:55 1022 30.18 851 25.13 -5 23.1 58 -11.9 10.5
20:00 1022 30.18 851 25.13 -4.5 23.8 59 -11.4 11.5
20:05 1022 30.18 851 25.13 -4.5 24 58 -11.6 11.1
20:10 1022 30.18 851 25.13 -4.5 23.9 56 -12 10.5
20:15 1022 30.18 851 25.13 -4.4 24 61 -10.8 12.6
20:20 1022 30.18 851 25.13 -4.6 23.7 58 -11.7 10.9
20:25 1022 30.18 851 25.13 -4.6 23.8 57 -11.8 10.8
20:30 1022 30.18 851 25.13 -4.4 24.1 57 -11.8 10.8
20:35 1021 30.15 851 25.13 -4.8 23.4 59 -11.6 11.1
20:40 1021 30.15 851 25.13 -4.9 23.2 60 -11.5 11.3
20:45 1021 30.15 851 25.13 -5.3 22.5 62 -11.5 11.4
20:50 1021 30.15 851 25.13 -5.5 22 61 -11.9 10.6
20:55 1021 30.15 851 25.13 -5.2 22.6 61 -11.5 11.3
21:00 1021 30.15 851 25.13 -5.5 22.1 62 -11.8 10.8
21:05 1021 30.15 851 25.13 -4.4 24.1 56 -11.9 10.5
21:10 1021 30.15 851 25.13 -4.3 24.3 56 -11.8 10.8
21:15 1021 30.15 851 25.13 -4.3 24.2 56 -11.8 10.7
21:20 1021 30.15 851 25.13 -4.1 24.6 53 -12.2 10
21:25 1021 30.15 851 25.13 -3.9 25.1 52 -12.4 9.8
21:30 1021 30.15 851 25.13 -3.9 25 53 -12.2 10.1
21:35 1022 30.18 851 25.13 -4.3 24.3 55 -12 10.3
21:40 1022 30.18 851 25.13 -4.5 23.9 55 -12.2 10
21:45 1022 30.18 851 25.13 -4.4 24.1 54 -12.3 9.8
21:50 1021 30.15 851 25.13 -4.3 24.3 54 -12.3 9.9
21:55 1021 30.15 851 25.13 -4.2 24.5 53 -12.3 9.8
22:00 1021 30.15 851 25.13 -4.1 24.6 54 -12.2 10.1
22:05 1022 30.18 851 25.13 -4.4 24.1 55 -12.1 10.2
22:10 1021 30.15 851 25.13 -4.9 23.3 61 -11.3 11.6
22:15 1021 30.15 851 25.13 -5.7 21.7 61 -12.2 10.1
22:20 1022 30.18 851 25.13 -5.4 22.4 59 -12.3 9.9
22:25 1022 30.18 851 25.13 -4.6 23.7 55 -12.4 9.7
22:30 1022 30.18 851 25.13 -4.5 24 56 -12 10.4
22:35 1022 30.18 851 25.13 -4.7 23.5 56 -12.1 10.1
22:40 1022 30.18 851 25.13 -4.9 23.2 56 -12.3 9.8
22:45 1022 30.18 851 25.13 -4.9 23.3 56 -12.4 9.8
22:50 1022 30.18 851 25.13 -4.8 23.3 56 -12.3 9.9
22:55 1022 30.18 851 25.13 -5 22.9 57 -12.2 10
23:00 1022 30.18 851 25.13 -5.2 22.6 58 -12.2 10
23:05 1022 30.18 851 25.13 -5.3 22.4 59 -12.2 10
23:10 1021 30.15 851 25.13 -5.3 22.4 58 -12.3 9.8
23:15 1021 30.15 851 25.13 -5.4 22.4 58 -12.3 9.9
23:20 1021 30.15 851 25.13 -5.1 22.8 57 -12.3 9.9
23:25 1021 30.15 851 25.13 -5.1 22.9 57 -12.3 9.8
23:30 1021 30.15 851 25.13 -5.1 22.9 58 -12.1 10.3
23:35 1021 30.15 851 25.13 -5.5 22.1 61 -11.9 10.5
23:40 1021 30.15 851 25.13 -5.8 21.5 62 -12 10.5
23:45 1021 30.15 851 25.13 -6.1 21.1 62 -12.1 10.2
23:50 1021 30.15 851 25.13 -6.2 20.8 63 -12.2 10.1
23:55 1021 30.15 851 25.13 -6.3 20.6 64 -12.1 10.2
24:00 1021 30.15 851 25.13 -6.3 20.6 64 -12.1 10.2